Time;durP1;ratioP1;P1;durP2;ratioP2;P2;SDS_P1;SDS_P2;PMS_P1;PMS_P2;Temp;Humidity;BMP_temperature;BMP_pressure;BME280_temperature;BME280_humidity;BME280_pressure;Samples;Min_cycle;Max_cycle;Signal;HPM_P1;HPM_P2
2022/06/24 00:02:16;;;;;;;21.95;14.88;;;22.80;99.90;;;;;;5032048;28;20056;-85
2022/06/24 00:05:07;;;;;;;21.23;14.90;;;22.70;99.90;;;;;;5046827;28;20056;-76
2022/06/24 00:07:53;;;;;;;20.65;16.00;;;22.80;99.90;;;;;;5047828;28;20047;-79
2022/06/24 00:10:39;;;;;;;35.30;22.50;;;23.00;99.90;;;;;;5049701;28;20408;-79
2022/06/24 00:13:38;;;;;;;25.42;19.25;;;23.10;99.90;;;;;;5051028;28;20759;-79
2022/06/24 00:16:24;;;;;;;24.25;18.63;;;23.10;99.90;;;;;;5049798;28;20587;-80
2022/06/24 00:19:10;;;;;;;20.45;16.08;;;23.20;99.90;;;;;;5053275;28;20124;-82
2022/06/24 00:22:09;;;;;;;21.77;16.63;;;23.00;99.90;;;;;;5040725;28;20047;-80
2022/06/24 00:25:08;;;;;;;23.65;16.95;;;23.10;99.90;;;;;;5052951;28;20405;-84
2022/06/24 00:28:11;;;;;;;22.90;15.52;;;23.30;99.90;;;;;;5035461;28;20056;-80
2022/06/24 00:30:58;;;;;;;20.35;15.63;;;23.40;99.90;;;;;;5030083;28;20119;-79
2022/06/24 00:33:46;;;;;;;18.98;14.93;;;23.40;99.90;;;;;;5050445;28;20197;-78
2022/06/24 00:36:32;;;;;;;16.85;13.88;;;23.20;99.90;;;;;;5047756;28;20187;-79
2022/06/24 00:39:18;;;;;;;24.85;19.33;;;23.10;99.90;;;;;;5046165;28;20218;-77
2022/06/24 00:42:05;;;;;;;120.68;87.07;;;23.10;99.90;;;;;;5048668;28;20048;-80
2022/06/24 00:45:11;;;;;;;128.65;94.40;;;23.20;99.90;;;;;;5046538;28;20052;-80
2022/06/24 00:47:57;;;;;;;82.25;57.13;;;23.40;99.90;;;;;;5035280;28;20040;-79
2022/06/24 00:50:47;;;;;;;113.65;82.53;;;23.20;99.90;;;;;;5028224;28;20154;-79
2022/06/24 00:53:49;;;;;;;40.77;32.77;;;23.30;99.90;;;;;;5029304;28;20187;-83
2022/06/24 00:56:35;;;;;;;25.42;20.83;;;23.40;99.90;;;;;;5051505;28;20048;-82
2022/06/24 00:59:26;;;;;;;28.10;19.83;;;23.30;99.90;;;;;;5049205;28;20048;-79
2022/06/24 01:02:16;;;;;;;24.42;19.05;;;23.40;99.90;;;;;;5049009;28;20439;-79
2022/06/24 01:05:07;;;;;;;22.25;18.25;;;23.30;99.90;;;;;;5027529;28;20151;-81
2022/06/24 01:07:53;;;;;;;24.38;19.83;;;23.30;99.90;;;;;;5044094;28;20512;-81
2022/06/24 01:10:40;;;;;;;26.15;19.65;;;23.50;99.90;;;;;;5051667;28;20048;-81
2022/06/24 01:13:26;;;;;;;21.42;17.25;;;23.60;99.90;;;;;;5026956;28;20048;-82
2022/06/24 01:16:11;;;;;;;24.95;18.35;;;23.50;99.90;;;;;;5048510;28;20126;-81
2022/06/24 01:19:03;;;;;;;19.40;16.15;;;23.50;99.90;;;;;;5051386;28;20540;-79
2022/06/24 01:21:50;;;;;;;23.67;16.27;;;23.20;99.90;;;;;;5048680;28;20134;-82
2022/06/24 01:24:36;;;;;;;20.58;15.68;;;23.40;99.90;;;;;;5025419;28;20044;-83
2022/06/24 01:27:22;;;;;;;21.08;15.85;;;23.20;99.90;;;;;;5043902;28;20059;-80
2022/06/24 01:30:10;;;;;;;19.77;15.57;;;23.20;99.90;;;;;;5032391;28;20052;-82
2022/06/24 01:32:55;;;;;;;22.13;15.43;;;23.30;99.90;;;;;;5033688;28;20054;-85
2022/06/24 01:35:42;;;;;;;20.23;14.50;;;23.40;99.90;;;;;;5030247;28;20079;-84
2022/06/24 01:38:28;;;;;;;23.25;16.00;;;23.20;99.90;;;;;;5053323;28;20052;-85
2022/06/24 01:41:14;;;;;;;19.33;15.35;;;23.10;99.90;;;;;;5053259;28;20063;-85
2022/06/24 01:44:01;;;;;;;16.80;14.55;;;23.10;99.90;;;;;;5038603;28;20055;-85
2022/06/24 01:46:47;;;;;;;20.67;14.73;;;23.00;99.90;;;;;;5053385;28;20128;-82
2022/06/24 01:49:33;;;;;;;20.00;14.88;;;23.10;99.90;;;;;;5053372;28;20056;-81
2022/06/24 01:52:19;;;;;;;18.90;13.73;;;23.00;99.90;;;;;;5053270;28;20633;-81
2022/06/24 01:55:05;;;;;;;19.38;14.25;;;23.10;99.90;;;;;;5053086;28;20064;-83
2022/06/24 01:57:51;;;;;;;17.00;13.13;;;22.90;99.90;;;;;;5053203;28;20429;-81
2022/06/24 02:00:37;;;;;;;18.27;14.07;;;22.90;99.90;;;;;;5053360;28;20064;-83
2022/06/24 02:03:23;;;;;;;19.08;14.20;;;22.90;99.90;;;;;;5053187;28;20135;-82
2022/06/24 02:06:11;;;;;;;19.40;14.50;;;22.90;99.90;;;;;;5053277;28;20044;-77
2022/06/24 02:08:57;;;;;;;20.70;13.75;;;23.10;99.90;;;;;;5052500;28;20048;-82
2022/06/24 02:14:49;;;;;;;16.30;13.25;;;22.90;99.90;;;;;;5052386;28;20052;-81
2022/06/24 02:17:34;;;;;;;18.05;13.50;;;22.70;99.90;;;;;;5052856;28;20405;-80
2022/06/24 02:20:20;;;;;;;19.35;14.85;;;22.50;99.90;;;;;;5052402;28;20131;-81
2022/06/24 02:23:06;;;;;;;17.95;13.52;;;22.70;99.90;;;;;;5052393;28;20100;-78
2022/06/24 02:25:54;;;;;;;19.65;15.10;;;22.70;99.90;;;;;;5052046;28;20068;-83
2022/06/24 02:28:39;;;;;;;19.92;15.10;;;22.70;99.90;;;;;;5032578;28;20135;-84
2022/06/24 02:31:26;;;;;;;18.85;14.75;;;22.80;99.90;;;;;;5032770;28;20103;-78
2022/06/24 02:34:12;;;;;;;19.00;14.82;;;22.60;99.90;;;;;;5016940;28;20043;-78
2022/06/24 02:36:58;;;;;;;20.85;14.90;;;22.60;99.90;;;;;;5032855;28;20569;-77
2022/06/24 02:39:44;;;;;;;19.60;15.10;;;22.60;99.90;;;;;;5017562;28;20044;-80
2022/06/24 02:42:30;;;;;;;18.20;13.93;;;22.70;99.90;;;;;;5017130;28;20052;-80
2022/06/24 02:45:16;;;;;;;22.30;15.20;;;22.60;99.90;;;;;;5032721;28;20143;-85
2022/06/24 02:48:03;;;;;;;19.88;14.27;;;22.50;99.90;;;;;;5032982;28;20057;-77
2022/06/24 02:50:51;;;;;;;17.77;15.23;;;22.60;99.90;;;;;;5018052;28;20048;-78
2022/06/24 02:53:38;;;;;;;21.70;14.70;;;22.60;99.90;;;;;;5032471;28;20405;-81
2022/06/24 02:56:24;;;;;;;18.60;14.50;;;22.60;99.90;;;;;;5033028;28;20056;-87
2022/06/24 02:59:10;;;;;;;20.63;14.48;;;22.60;99.90;;;;;;5032613;28;20049;-77
2022/06/24 03:01:56;;;;;;;21.98;15.27;;;22.50;99.90;;;;;;5032383;28;20072;-85
2022/06/24 03:04:42;;;;;;;22.23;14.48;;;22.40;99.90;;;;;;5032411;28;20528;-83
2022/06/24 03:07:28;;;;;;;18.50;14.50;;;22.20;99.90;;;;;;5032068;28;20413;-88
2022/06/24 03:10:14;;;;;;;20.42;14.63;;;22.20;99.90;;;;;;5031601;28;20044;-82
2022/06/24 03:13:01;;;;;;;20.52;14.75;;;22.30;99.90;;;;;;5017448;28;20515;-84
2022/06/24 03:15:48;;;;;;;21.00;15.05;;;22.30;99.90;;;;;;5032133;28;20550;-87
2022/06/24 03:18:34;;;;;;;20.45;14.88;;;22.20;99.90;;;;;;5032680;28;20053;-85
2022/06/24 03:21:20;;;;;;;19.65;14.48;;;22.20;99.90;;;;;;5032935;28;20056;-79
2022/06/24 03:24:06;;;;;;;20.73;14.27;;;22.20;99.90;;;;;;5032610;28;20064;-86
2022/06/24 03:26:52;;;;;;;19.55;14.90;;;22.40;99.90;;;;;;5031258;28;20056;-88
2022/06/24 03:29:37;;;;;;;20.15;15.35;;;22.40;99.90;;;;;;5032214;28;20056;-78
2022/06/24 03:32:24;;;;;;;22.73;15.07;;;22.40;99.90;;;;;;5032552;28;20052;-85
2022/06/24 03:35:10;;;;;;;20.25;14.57;;;22.30;99.90;;;;;;5032191;28;20047;-87
2022/06/24 03:37:56;;;;;;;22.27;15.27;;;22.30;99.90;;;;;;5032222;28;20048;-84
2022/06/24 03:40:41;;;;;;;17.50;14.65;;;22.30;99.90;;;;;;5032635;28;20051;-84
2022/06/24 03:43:27;;;;;;;19.90;14.52;;;22.20;99.90;;;;;;5030571;28;20048;-86
2022/06/24 03:46:13;;;;;;;18.13;14.13;;;22.20;99.90;;;;;;5034304;28;20056;-85
2022/06/24 03:48:59;;;;;;;22.17;15.95;;;22.10;99.90;;;;;;5034566;28;20417;-80
2022/06/24 03:51:45;;;;;;;18.98;15.45;;;21.90;99.90;;;;;;5036474;28;20183;-84
2022/06/24 03:54:31;;;;;;;18.35;15.02;;;21.90;99.90;;;;;;5036292;28;20048;-87
2022/06/24 03:57:20;;;;;;;19.00;14.55;;;22.00;99.90;;;;;;5036873;28;20516;-89
2022/06/24 04:00:10;;;;;;;24.45;16.33;;;21.90;99.90;;;;;;5037314;28;20580;-87
2022/06/24 04:02:56;;;;;;;20.57;15.57;;;22.00;99.90;;;;;;5037390;28;20048;-87
2022/06/24 04:05:42;;;;;;;23.13;15.15;;;22.20;99.90;;;;;;5077539;23;20075;-89
2022/06/24 04:08:28;;;;;;;21.52;16.23;;;22.50;99.90;;;;;;5062612;28;20141;-82
2022/06/24 04:11:15;;;;;;;20.95;15.80;;;22.60;99.90;;;;;;5076784;28;20105;-88
2022/06/24 04:14:01;;;;;;;19.02;15.02;;;22.30;99.90;;;;;;5077049;28;20048;-88
2022/06/24 04:16:47;;;;;;;19.48;15.80;;;22.20;99.90;;;;;;5077226;28;20082;-89
2022/06/24 04:19:36;;;;;;;22.30;15.77;;;22.40;99.90;;;;;;5077912;28;20059;-87
2022/06/24 04:22:22;;;;;;;22.52;15.52;;;22.20;99.90;;;;;;5076897;28;20541;-89
2022/06/24 04:25:11;;;;;;;21.88;16.10;;;22.10;99.90;;;;;;5076661;28;20051;-79
2022/06/24 04:27:56;;;;;;;22.42;16.25;;;22.20;99.90;;;;;;5074054;28;20693;-78
2022/06/24 04:30:43;;;;;;;21.52;16.23;;;22.30;99.90;;;;;;5063008;28;20051;-88
2022/06/24 04:33:29;;;;;;;24.55;16.13;;;22.40;99.90;;;;;;5056413;28;20171;-92
2022/06/24 04:36:15;;;;;;;23.35;17.08;;;22.30;99.90;;;;;;5057235;28;20512;-89
2022/06/24 04:39:01;;;;;;;28.60;18.15;;;22.50;99.90;;;;;;5042342;28;20462;-91
2022/06/24 04:41:47;;;;;;;26.23;16.58;;;22.40;99.90;;;;;;5037470;28;20044;-91
2022/06/24 04:44:32;;;;;;;26.30;17.00;;;22.30;99.90;;;;;;5037681;28;20607;-84
2022/06/24 04:47:25;;;;;;;23.58;16.25;;;22.20;99.90;;;;;;5037029;28;20117;-85
2022/06/24 04:50:11;;;;;;;22.45;16.73;;;22.20;99.90;;;;;;5022147;28;20053;-87
2022/06/24 04:52:57;;;;;;;25.13;16.83;;;22.30;99.90;;;;;;5022344;28;20123;-90
2022/06/24 04:55:43;;;;;;;22.10;16.63;;;22.30;99.90;;;;;;5021523;28;20048;-90
2022/06/24 04:58:29;;;;;;;22.58;16.40;;;22.30;99.90;;;;;;5036055;28;20253;-86
2022/06/24 05:01:15;;;;;;;23.67;15.93;;;22.20;99.90;;;;;;5029437;28;20115;-86
2022/06/24 05:04:01;;;;;;;22.60;16.30;;;22.10;99.90;;;;;;5035428;28;20068;-84
2022/06/24 05:06:57;;;;;;;21.08;15.15;;;22.10;99.90;;;;;;5035683;28;20052;-81
2022/06/24 05:09:57;;;;;;;21.08;15.07;;;21.80;99.90;;;;;;5035858;28;20543;-87
2022/06/24 05:12:42;;;;;;;19.75;14.85;;;21.30;99.90;;;;;;5021043;28;20048;-87
2022/06/24 05:15:28;;;;;;;21.77;15.13;;;21.30;99.90;;;;;;5035370;28;20072;-86
2022/06/24 05:18:14;;;;;;;17.60;14.48;;;21.40;99.90;;;;;;5036932;28;20625;-89
2022/06/24 05:21:00;;;;;;;20.48;15.25;;;21.50;99.90;;;;;;5022085;28;20060;-89
2022/06/24 05:23:46;;;;;;;21.15;15.02;;;21.70;99.90;;;;;;5020727;28;20051;-87
2022/06/24 05:26:34;;;;;;;23.30;16.05;;;21.70;99.90;;;;;;5035486;28;20624;-89
2022/06/24 05:29:20;;;;;;;20.40;15.57;;;21.70;99.90;;;;;;5035709;28;20076;-85
2022/06/24 05:32:05;;;;;;;18.83;15.55;;;21.70;99.90;;;;;;5034858;28;20055;-89
2022/06/24 05:34:51;;;;;;;25.42;16.92;;;22.00;99.90;;;;;;5036047;28;20202;-91
2022/06/24 05:37:39;;;;;;;20.27;15.38;;;22.10;99.90;;;;;;5035180;28;20060;-90
2022/06/24 05:40:24;;;;;;;21.15;15.52;;;22.20;99.90;;;;;;5035154;28;20147;-85
2022/06/24 05:43:11;;;;;;;18.27;14.75;;;22.30;99.90;;;;;;5035120;28;20051;-88
2022/06/24 05:45:56;;;;;;;19.27;15.05;;;22.10;99.90;;;;;;5035318;28;20060;-87
2022/06/24 05:48:42;;;;;;;23.00;16.05;;;21.90;99.90;;;;;;5035490;28;20056;-88
2022/06/24 05:51:29;;;;;;;19.55;15.80;;;21.70;99.90;;;;;;5020273;28;20563;-90
2022/06/24 05:57:20;;;;;;;19.90;15.57;;;21.80;99.90;;;;;;5035082;28;20138;-88
2022/06/24 06:00:06;;;;;;;20.83;15.95;;;22.00;99.90;;;;;;5034484;28;20091;-89
2022/06/24 06:02:58;;;;;;;19.25;15.65;;;22.10;99.90;;;;;;5020116;28;20056;-90
2022/06/24 06:05:44;;;;;;;21.90;16.92;;;22.00;99.90;;;;;;5020181;28;20060;-88
2022/06/24 06:08:32;;;;;;;21.55;15.98;;;22.20;99.90;;;;;;5034543;28;20060;-88
2022/06/24 06:11:19;;;;;;;22.92;16.35;;;22.20;99.90;;;;;;5035088;28;20115;-90
2022/06/24 06:14:05;;;;;;;21.02;15.57;;;22.20;99.90;;;;;;5035245;28;20052;-90
2022/06/24 06:16:51;;;;;;;22.17;17.10;;;21.90;99.90;;;;;;5020403;28;20117;-90
2022/06/24 06:19:37;;;;;;;25.52;17.00;;;22.10;99.90;;;;;;5034952;28;20424;-88
2022/06/24 06:22:23;;;;;;;20.50;15.77;;;22.30;99.90;;;;;;5028769;28;20508;-88
2022/06/24 06:25:09;;;;;;;22.73;17.38;;;22.60;99.90;;;;;;5019592;28;20056;-87
2022/06/24 06:27:54;;;;;;;21.48;16.60;;;22.50;99.90;;;;;;5033870;28;20060;-91
2022/06/24 06:30:40;;;;;;;21.48;17.50;;;22.70;99.90;;;;;;5019682;28;20536;-91
2022/06/24 06:33:26;;;;;;;22.83;17.00;;;22.80;99.90;;;;;;5018862;28;20041;-90
2022/06/24 06:36:15;;;;;;;24.55;16.95;;;22.90;99.90;;;;;;5034088;28;20057;-89
2022/06/24 06:39:01;;;;;;;22.73;15.98;;;22.90;99.90;;;;;;5019033;28;20183;-87
2022/06/24 06:41:47;;;;;;;21.95;17.25;;;23.10;99.90;;;;;;5019571;28;20056;-88
2022/06/24 06:44:33;;;;;;;22.52;16.98;;;23.20;99.90;;;;;;5034808;28;20119;-88
2022/06/24 06:47:19;;;;;;;20.88;16.55;;;23.20;99.90;;;;;;5035173;28;20555;-89
2022/06/24 06:50:05;;;;;;;26.95;16.95;;;23.10;99.90;;;;;;5035570;28;20140;-87
2022/06/24 06:52:57;;;;;;;23.35;17.63;;;22.70;99.90;;;;;;5035299;28;20052;-89
2022/06/24 06:55:42;;;;;;;24.10;17.85;;;22.50;99.90;;;;;;5036119;28;20559;-85
2022/06/24 06:58:33;;;;;;;24.52;18.00;;;22.50;99.90;;;;;;5021233;28;20055;-86
2022/06/24 07:01:19;;;;;;;26.05;17.90;;;22.70;99.90;;;;;;5031901;28;20215;-89
2022/06/24 07:04:05;;;;;;;25.70;18.75;;;22.80;99.90;;;;;;5033885;28;20060;-88
2022/06/24 07:06:53;;;;;;;34.13;26.65;;;22.80;99.90;;;;;;5033757;28;20075;-88
2022/06/24 07:09:38;;;;;;;32.20;25.80;;;22.40;99.90;;;;;;5018887;28;20069;-85
2022/06/24 07:12:24;;;;;;;82.05;59.17;;;22.60;99.90;;;;;;5032824;28;20053;-91
2022/06/24 07:15:14;;;;;;;29.77;23.77;;;23.30;99.90;;;;;;5045077;28;20052;-87
2022/06/24 07:18:00;;;;;;;24.30;17.55;;;23.40;99.90;;;;;;5026643;28;20590;-87
2022/06/24 07:20:46;;;;;;;29.10;19.83;;;23.60;99.90;;;;;;5032565;28;20171;-89
2022/06/24 07:23:32;;;;;;;26.60;19.35;;;23.80;99.90;;;;;;5027300;28;20057;-91
2022/06/24 07:26:18;;;;;;;24.13;18.50;;;23.80;99.90;;;;;;5024470;28;20122;-89
2022/06/24 07:29:04;;;;;;;26.02;19.25;;;23.80;99.90;;;;;;5052254;28;20055;-80
2022/06/24 07:31:51;;;;;;;34.05;24.35;;;24.00;99.90;;;;;;5020905;28;20047;-85
2022/06/24 07:34:42;;;;;;;50.08;37.22;;;24.00;99.90;;;;;;5044187;28;20056;-91
2022/06/24 07:37:27;;;;;;;39.95;31.20;;;23.90;99.90;;;;;;5042809;28;20039;-90
2022/06/24 07:40:15;;;;;;;51.08;38.10;;;23.90;99.90;;;;;;5044773;28;20503;-81
2022/06/24 07:43:01;;;;;;;32.45;25.08;;;24.20;99.90;;;;;;5051247;28;20056;-83
2022/06/24 07:45:47;;;;;;;27.60;20.15;;;24.10;99.90;;;;;;5051901;28;20114;-88
2022/06/24 07:48:33;;;;;;;25.90;20.10;;;23.60;99.90;;;;;;5037112;28;20048;-88
2022/06/24 07:51:21;;;;;;;27.02;20.98;;;23.80;99.90;;;;;;5031670;28;20167;-84
2022/06/24 07:54:10;;;;;;;24.27;20.00;;;24.10;99.90;;;;;;5040344;28;20052;-89
2022/06/24 07:56:59;;;;;;;22.63;17.98;;;24.20;99.90;;;;;;5025374;28;20427;-84
2022/06/24 07:59:46;;;;;;;26.17;19.23;;;24.30;99.90;;;;;;5041473;28;20508;-85
2022/06/24 08:02:32;;;;;;;27.73;18.40;;;24.40;99.90;;;;;;5039881;28;20055;-89
2022/06/24 08:05:18;;;;;;;25.98;18.92;;;24.50;99.90;;;;;;5025450;28;20413;-87
2022/06/24 08:08:04;;;;;;;24.73;18.50;;;24.40;99.90;;;;;;5044764;28;20068;-88
2022/06/24 08:10:50;;;;;;;22.85;17.60;;;24.30;99.90;;;;;;5045555;28;20619;-88
2022/06/24 08:13:36;;;;;;;43.08;26.25;;;24.00;99.90;;;;;;5020585;28;20114;-94
2022/06/24 08:16:22;;;;;;;47.65;28.73;;;24.00;99.90;;;;;;5017649;28;20421;-88
2022/06/24 08:19:09;;;;;;;34.63;23.23;;;23.90;99.90;;;;;;5032090;28;20057;-87
2022/06/24 08:21:55;;;;;;;38.83;23.70;;;23.70;99.90;;;;;;5031555;28;20064;-85
2022/06/24 08:24:41;;;;;;;44.38;25.38;;;23.80;99.90;;;;;;5030825;28;20123;-87
2022/06/24 08:27:46;;;;;;;65.20;32.92;;;23.90;99.90;;;;;;5034838;28;20040;-83
2022/06/24 08:30:32;;;;;;;50.55;30.70;;;24.30;99.90;;;;;;5036224;28;20048;-85
2022/06/24 08:33:19;;;;;;;76.13;37.63;;;24.60;99.90;;;;;;5054763;28;20519;-80
2022/06/24 08:36:06;;;;;;;48.35;29.83;;;24.40;99.90;;;;;;5054167;28;20113;-82
2022/06/24 08:38:55;;;;;;;26.38;20.08;;;24.40;99.90;;;;;;5054362;28;20130;-81
2022/06/24 08:41:45;;;;;;;30.00;21.03;;;23.90;99.90;;;;;;5032963;28;20059;-83
2022/06/24 08:44:31;;;;;;;;;;;23.60;99.90;;;;;;5028957;28;20309;-81
2022/06/24 08:47:18;;;;;;;42.03;29.95;;;23.60;99.90;;;;;;4963577;28;20038;-83
2022/06/24 08:50:06;;;;;;;42.95;25.10;;;23.50;99.90;;;;;;4939429;28;20214;-84
2022/06/24 08:52:53;;;;;;;26.65;20.80;;;23.70;99.90;;;;;;4981171;28;20074;-86
2022/06/24 08:55:41;;;;;;;25.35;18.55;;;23.80;99.90;;;;;;4995435;28;20061;-91
2022/06/24 08:58:27;;;;;;;25.92;20.17;;;23.60;99.90;;;;;;4984305;28;20110;-85
2022/06/24 09:01:14;;;;;;;23.73;18.42;;;23.70;99.90;;;;;;5001124;28;20049;-90
2022/06/24 09:04:00;;;;;;;25.02;18.77;;;23.80;99.90;;;;;;4993348;28;20540;-81
2022/06/24 09:06:50;;;;;;;26.33;19.52;;;24.10;99.90;;;;;;5007861;28;20448;-82
2022/06/24 09:09:35;;;;;;;27.75;19.98;;;24.30;99.90;;;;;;4994263;28;20057;-85
2022/06/24 09:12:21;;;;;;;24.20;17.90;;;24.80;99.90;;;;;;5010322;28;20109;-86
2022/06/24 09:15:09;;;;;;;25.08;16.85;;;24.70;99.90;;;;;;4994107;28;20057;-82
2022/06/24 09:17:56;;;;;;;56.72;40.25;;;24.80;99.90;;;;;;4862127;28;20069;-88
2022/06/24 09:20:49;;;;;;;35.10;27.33;;;25.10;99.90;;;;;;5008398;28;20045;-87
2022/06/24 09:23:54;;;;;;;28.70;20.13;;;25.30;99.90;;;;;;4989702;28;20056;-89
2022/06/24 09:26:42;;;;;;;18.83;15.85;;;25.30;99.90;;;;;;5003861;28;20177;-86
2022/06/24 09:29:29;;;;;;;19.75;13.63;;;25.10;99.90;;;;;;4989677;28;20049;-91
2022/06/24 09:32:15;;;;;;;20.33;15.00;;;24.80;99.90;;;;;;4989061;28;20045;-87
2022/06/24 09:35:07;;;;;;;22.20;16.92;;;24.90;99.90;;;;;;4989817;28;20659;-88
2022/06/24 09:37:53;;;;;;;21.67;15.60;;;25.30;99.90;;;;;;4992713;28;20057;-81
2022/06/24 09:40:42;;;;;;;17.05;14.27;;;25.20;99.90;;;;;;5012443;28;20069;-84
2022/06/24 09:43:32;;;;;;;16.27;13.15;;;25.30;99.90;;;;;;4998105;28;20188;-79
2022/06/24 09:46:25;;;;;;;20.77;14.68;;;25.10;99.90;;;;;;4994073;28;20481;-80
2022/06/24 09:49:16;;;;;;;25.92;19.67;;;25.50;99.90;;;;;;5004856;28;20056;-83
2022/06/24 09:52:02;;;;;;;48.35;36.20;;;25.50;99.90;;;;;;4988328;28;20056;-78
2022/06/24 09:54:48;;;;;;;35.97;28.38;;;25.60;99.90;;;;;;5000520;28;20084;-81
2022/06/24 09:57:34;;;;;;;29.15;22.83;;;25.50;99.90;;;;;;5003674;28;20834;-77
2022/06/24 10:03:26;;;;;;;46.08;34.47;;;26.10;99.90;;;;;;4998843;28;20517;-80
2022/06/24 10:06:15;;;;;;;29.70;22.38;;;26.20;99.90;;;;;;4980039;28;20077;-85
2022/06/24 10:09:04;;;;;;;30.10;21.83;;;26.40;99.90;;;;;;4970033;28;20065;-84
2022/06/24 10:11:56;;;;;;;19.42;16.02;;;26.70;99.90;;;;;;4989571;28;20454;-81
2022/06/24 10:14:45;;;;;;;20.63;15.13;;;26.40;99.90;;;;;;5009681;28;20208;-86
2022/06/24 10:17:33;;;;;;;25.75;15.05;;;26.30;99.90;;;;;;5009368;28;20040;-85
2022/06/24 10:20:20;;;;;;;19.88;13.20;;;26.50;99.90;;;;;;4999392;28;20156;-79
2022/06/24 10:23:07;;;;;;;19.77;12.98;;;26.60;99.90;;;;;;5000927;28;20135;-81
2022/06/24 10:25:53;;;;;;;17.23;12.32;;;26.70;99.90;;;;;;5013022;28;20049;-82
2022/06/24 10:29:04;;;;;;;67.40;54.05;;;26.50;99.90;;;;;;4995679;28;20393;-79
2022/06/24 10:31:53;;;;;;;24.30;19.17;;;26.90;99.90;;;;;;4979868;28;20153;-84
2022/06/24 10:34:41;;;;;;;16.50;13.35;;;27.30;99.90;;;;;;4981756;28;20172;-77
2022/06/24 10:37:31;;;;;;;16.67;13.45;;;27.30;99.90;;;;;;4979356;28;20053;-81
2022/06/24 10:40:24;;;;;;;15.40;13.45;;;27.40;99.90;;;;;;4990063;28;20076;-80
2022/06/24 10:43:13;;;;;;;17.02;11.68;;;27.40;99.90;;;;;;5000066;28;20057;-83
2022/06/24 10:46:17;;;;;;;13.98;11.07;;;27.60;99.90;;;;;;4993576;28;20192;-83
2022/06/24 10:49:04;;;;;;;20.55;12.55;;;27.40;99.80;;;;;;5006391;28;20121;-81
2022/06/24 10:51:49;;;;;;;16.42;10.88;;;27.50;99.70;;;;;;4996166;28;20108;-84
2022/06/24 10:54:43;;;;;;;22.00;13.30;;;27.60;98.70;;;;;;4990534;28;20045;-81
2022/06/24 10:57:29;;;;;;;22.13;11.73;;;27.70;99.60;;;;;;5012924;28;20088;-82
2022/06/24 11:00:48;;;;;;;19.23;12.80;;;27.70;99.00;;;;;;5009460;28;20061;-83
2022/06/24 11:03:39;;;;;;;15.80;11.25;;;27.90;98.20;;;;;;4997509;28;20049;-83
2022/06/24 11:06:25;;;;;;;16.45;10.68;;;27.90;97.80;;;;;;5012193;28;20045;-83
2022/06/24 11:09:16;;;;;;;12.77;10.00;;;27.80;96.50;;;;;;4997524;28;20065;-83
2022/06/24 11:12:48;;;;;;;13.95;9.40;;;27.90;96.10;;;;;;4997135;28;20501;-86
2022/06/24 11:15:49;;;;;;;16.42;11.10;;;27.70;96.10;;;;;;5010302;28;20057;-81
2022/06/24 11:18:35;;;;;;;;;;;27.80;96.30;;;;;;5010752;28;20410;-80
2022/06/24 11:21:21;;;;;;;17.08;11.45;;;28.20;95.30;;;;;;4995143;28;19928;-81
2022/06/24 11:24:09;;;;;;;17.13;11.07;;;28.50;95.10;;;;;;5010080;28;20053;-80
2022/06/24 11:27:10;;;;;;;13.07;9.93;;;28.80;95.90;;;;;;4993823;28;20057;-81
2022/06/24 11:30:00;;;;;;;15.73;10.32;;;28.50;94.30;;;;;;4993196;28;20180;-80
2022/06/24 11:33:01;;;;;;;12.32;10.30;;;28.50;93.90;;;;;;5011836;28;20044;-80
2022/06/24 11:35:49;;;;;;;13.73;10.18;;;28.80;93.60;;;;;;4997067;28;20057;-83
2022/06/24 11:38:50;;;;;;;12.18;9.45;;;28.90;92.50;;;;;;5011690;28;20697;-85
2022/06/24 11:41:49;;;;;;;18.80;14.30;;;29.00;91.80;;;;;;5011766;28;20060;-84
2022/06/24 11:44:40;;;;;;;25.40;19.00;;;29.30;92.00;;;;;;4998535;28;20049;-86
2022/06/24 11:47:32;;;;;;;30.83;22.88;;;29.30;92.70;;;;;;4997831;28;20509;-85
2022/06/24 11:50:19;;;;;;;15.35;11.25;;;28.90;92.40;;;;;;4997305;28;20092;-81
2022/06/24 11:53:07;;;;;;;14.13;9.98;;;28.90;91.70;;;;;;4996902;28;20127;-81
2022/06/24 11:56:05;;;;;;;14.63;10.45;;;28.90;91.20;;;;;;4998256;28;20571;-83
2022/06/24 11:59:04;;;;;;;15.85;10.18;;;29.00;90.70;;;;;;4998086;28;20139;-81
2022/06/24 12:01:53;;;;;;;17.48;11.48;;;29.10;89.30;;;;;;4997002;28;20514;-84
2022/06/24 12:04:42;;;;;;;39.63;32.83;;;29.10;90.90;;;;;;4996962;28;20103;-78
2022/06/24 12:07:29;;;;;;;58.55;45.20;;;29.10;88.70;;;;;;4999519;28;20302;-81
2022/06/24 12:10:22;;;;;;;22.60;17.77;;;29.20;86.60;;;;;;5000653;28;20255;-82
2022/06/24 12:13:07;;;;;;;13.55;11.32;;;29.00;84.70;;;;;;5000673;28;20057;-80
2022/06/24 12:15:54;;;;;;;14.55;8.88;;;29.00;87.10;;;;;;5000924;28;20420;-80
2022/06/24 12:18:41;;;;;;;16.48;9.70;;;29.50;85.60;;;;;;5002590;28;20193;-79
2022/06/24 12:21:30;;;;;;;13.70;8.57;;;29.50;82.80;;;;;;5000288;28;20065;-80
2022/06/24 12:24:35;;;;;;;13.27;9.00;;;29.60;78.90;;;;;;4995732;28;20515;-80
2022/06/24 12:27:32;;;;;;;12.82;8.82;;;29.40;77.00;;;;;;4998691;28;20184;-79
2022/06/24 12:30:25;;;;;;;15.15;8.85;;;29.50;78.70;;;;;;5000383;28;20056;-83
2022/06/24 12:33:17;;;;;;;13.85;8.93;;;29.60;77.40;;;;;;5015001;28;20048;-80
2022/06/24 12:36:14;;;;;;;12.38;8.77;;;29.70;78.10;;;;;;5015176;28;20057;-80
2022/06/24 12:39:05;;;;;;;15.25;8.50;;;29.80;77.10;;;;;;5014874;28;20139;-79
2022/06/24 12:41:51;;;;;;;14.30;9.38;;;29.70;73.60;;;;;;5015405;28;20181;-80
2022/06/24 12:44:41;;;;;;;11.45;8.48;;;29.70;73.30;;;;;;5014651;28;20052;-78
2022/06/24 12:50:37;;;;;;;12.52;7.90;;;30.30;70.50;;;;;;5014959;28;20061;-78
2022/06/24 12:53:27;;;;;;;9.40;7.20;;;30.20;69.80;;;;;;5014787;28;20587;-80
2022/06/24 12:56:13;;;;;;;11.27;8.63;;;30.10;69.70;;;;;;4992486;28;20172;-78
2022/06/24 12:58:59;;;;;;;11.23;8.13;;;30.10;68.70;;;;;;4999928;28;20548;-78
2022/06/24 13:01:46;;;;;;;14.85;9.18;;;30.10;68.50;;;;;;5000203;28;20540;-81
2022/06/24 13:04:34;;;;;;;177.88;137.82;;;30.10;71.80;;;;;;5014421;28;20131;-82
2022/06/24 13:07:20;;;;;;;175.63;144.98;;;30.40;69.40;;;;;;5014597;28;20057;-78
2022/06/24 13:10:08;;;;;;;21.90;18.42;;;30.50;68.70;;;;;;4999984;28;20074;-82
2022/06/24 13:12:54;;;;;;;21.40;12.45;;;30.40;68.30;;;;;;4999557;28;20041;-79
2022/06/24 13:15:40;;;;;;;23.27;12.23;;;30.10;66.90;;;;;;5014323;28;20509;-79
2022/06/24 13:18:26;;;;;;;35.55;27.73;;;30.30;68.20;;;;;;4998202;28;20139;-80
2022/06/24 13:21:14;;;;;;;53.72;34.80;;;30.60;66.80;;;;;;5014675;28;20524;-78
2022/06/24 13:23:59;;;;;;;15.98;11.73;;;30.60;69.40;;;;;;5014214;28;20068;-78
2022/06/24 13:26:47;;;;;;;16.27;9.15;;;30.40;67.60;;;;;;4998545;28;20056;-81
2022/06/24 13:29:33;;;;;;;19.60;12.43;;;30.30;67.50;;;;;;5012441;28;20061;-79
2022/06/24 13:32:20;;;;;;;13.88;8.48;;;30.40;68.80;;;;;;5012756;28;20052;-79
2022/06/24 13:35:07;;;;;;;16.15;9.70;;;30.40;68.80;;;;;;4997853;28;20104;-78
2022/06/24 13:37:52;;;;;;;16.95;10.07;;;30.40;65.50;;;;;;4995535;28;20057;-77
2022/06/24 13:40:38;;;;;;;13.05;8.70;;;30.40;67.30;;;;;;5000802;28;20061;-79
2022/06/24 13:43:25;;;;;;;14.70;10.00;;;30.30;65.40;;;;;;5013520;28;20049;-80
2022/06/24 13:46:10;;;;;;;12.75;9.52;;;30.50;66.80;;;;;;5013389;28;20060;-79
2022/06/24 13:49:00;;;;;;;13.82;7.93;;;30.50;63.30;;;;;;4999693;28;20393;-79
2022/06/24 13:52:24;;;;;;;;;;;;;;;;;;;;;
2022/06/24 13:55:28;;;;;;;13.35;7.60;;;30.60;67.60;;;;;;5006374;28;20048;-81
2022/06/24 13:58:14;;;;;;;16.05;10.65;;;30.70;65.50;;;;;;4983800;28;20128;-78
2022/06/24 14:01:00;;;;;;;26.17;18.38;;;31.00;65.90;;;;;;5004104;28;20072;-79
2022/06/24 14:03:46;;;;;;;19.63;13.05;;;31.00;66.50;;;;;;5004052;28;20100;-78
2022/06/24 14:06:33;;;;;;;14.60;9.93;;;31.10;67.90;;;;;;4989990;28;20053;-78
2022/06/24 14:09:22;;;;;;;15.27;9.98;;;30.80;67.50;;;;;;5003977;28;20048;-78
2022/06/24 14:12:10;;;;;;;11.93;8.52;;;30.80;67.10;;;;;;4990564;28;20120;-78
2022/06/24 14:14:55;;;;;;;12.30;9.13;;;31.00;66.50;;;;;;4993347;28;20397;-81
2022/06/24 14:17:44;;;;;;;26.60;18.23;;;31.00;67.00;;;;;;4992700;28;20410;-80
2022/06/24 14:20:32;;;;;;;25.58;20.92;;;31.20;65.60;;;;;;4988811;28;20053;-79
2022/06/24 14:27:10;;;;;;;12.50;8.10;;;31.20;63.70;;;;;;4993831;28;20129;-80
2022/06/24 14:30:14;;;;;;;11.45;7.97;;;31.10;63.00;;;;;;5004250;28;20068;-80
2022/06/24 14:33:01;;;;;;;15.15;11.00;;;30.80;64.10;;;;;;4992529;28;20422;-82
2022/06/24 14:35:48;;;;;;;10.65;8.35;;;30.70;67.30;;;;;;4992401;28;20445;-81